createdAt,value
2022-08-06T00:02:05.935Z,97993.69
2022-08-06T00:04:53.479Z,97977.66
2022-08-06T00:07:47.702Z,98119.19
2022-08-06T00:10:34.045Z,98107.63
2022-08-06T00:13:20.727Z,98114.53
2022-08-06T00:16:10.855Z,97961.97
2022-08-06T00:19:17.794Z,98110.16
2022-08-06T00:22:03.682Z,98103.00
2022-08-06T00:24:49.637Z,98120.34
2022-08-06T00:27:38.385Z,98113.94
2022-08-06T00:30:24.648Z,98113.97
2022-08-06T00:33:10.467Z,98121.63
2022-08-06T00:36:00.997Z,98098.09
2022-08-06T00:38:46.873Z,98124.00
2022-08-06T00:41:41.639Z,98066.16
2022-08-06T00:44:31.665Z,98064.47
2022-08-06T00:47:41.278Z,97993.38
2022-08-06T00:50:23.164Z,98115.63
2022-08-06T00:53:13.819Z,98131.31
2022-08-06T00:56:09.024Z,98133.34
2022-08-06T00:59:03.256Z,98127.69
2022-08-06T01:01:51.254Z,98096.06
2022-08-06T01:04:37.624Z,98131.59
2022-08-06T01:07:24.083Z,98130.72
2022-08-06T01:10:30.962Z,98101.00
2022-08-06T01:14:03.850Z,97967.47
2022-08-06T01:16:39.792Z,98135.78
2022-08-06T01:21:56.581Z,98131.31
2022-08-06T01:23:32.445Z,98141.09
2022-08-06T01:26:33.044Z,98140.25
2022-08-06T01:29:35.048Z,98097.88
2022-08-06T01:32:45.644Z,98126.63
2022-08-06T01:35:47.864Z,98017.81
2022-08-06T01:38:50.815Z,98132.31
2022-08-06T01:41:54.999Z,98126.59
2022-08-06T01:44:49.807Z,98072.13
2022-08-06T01:47:54.108Z,98148.63
2022-08-06T01:50:45.411Z,98137.72
2022-08-06T01:54:01.842Z,98095.84
2022-08-06T01:56:57.573Z,98134.91
2022-08-06T01:59:48.629Z,98104.66
2022-08-06T02:02:37.407Z,98003.41
2022-08-06T02:05:32.231Z,98152.81
2022-08-06T02:08:38.766Z,98136.06
2022-08-06T02:12:03.054Z,97950.63
2022-08-06T02:14:36.186Z,98151.53
2022-08-06T02:18:04.620Z,98085.06
2022-08-06T02:20:52.862Z,98136.66
2022-08-06T02:23:41.217Z,98122.50
2022-08-06T02:26:32.863Z,98113.25
2022-08-06T02:29:21.178Z,98038.22
2022-08-06T02:32:08.870Z,98127.19
2022-08-06T02:34:56.005Z,98093.97
2022-08-06T02:38:02.303Z,98124.28
2022-08-06T02:40:56.262Z,98114.72
2022-08-06T02:43:52.457Z,98132.56
2022-08-06T02:46:44.542Z,98137.47
2022-08-06T02:49:38.148Z,98124.59
2022-08-06T02:52:37.376Z,98136.00
2022-08-06T02:55:37.248Z,98119.38
2022-08-06T02:58:38.658Z,98147.03
2022-08-06T03:01:39.321Z,98029.19
2022-08-06T03:04:33.264Z,98148.22
2022-08-06T03:07:27.565Z,98115.28
2022-08-06T03:10:20.469Z,98063.00
2022-08-06T03:13:17.960Z,98139.72
2022-08-06T03:16:24.167Z,98103.50
2022-08-06T03:19:57.004Z,98022.06
2022-08-06T03:22:35.827Z,98026.34
2022-08-06T03:25:25.701Z,98142.44
2022-08-06T03:28:20.674Z,98014.78
2022-08-06T03:31:10.967Z,98150.63
2022-08-06T03:33:59.663Z,98027.78
2022-08-06T03:36:51.297Z,98108.53
2022-08-06T03:39:40.555Z,98078.75
2022-08-06T03:42:27.798Z,98096.28
2022-08-06T03:45:45.371Z,98163.50
2022-08-06T03:48:38.337Z,98107.88
2022-08-06T03:51:50.589Z,97750.47
2022-08-06T03:54:42.506Z,97966.00
2022-08-06T03:57:40.996Z,98159.63
2022-08-06T04:00:41.405Z,98130.63
2022-08-06T04:03:39.706Z,98003.56
2022-08-06T04:06:27.421Z,98154.16
2022-08-06T04:09:14.659Z,98159.25
2022-08-06T04:12:42.589Z,98134.22
2022-08-06T04:15:25.984Z,98148.72
2022-08-06T04:18:19.967Z,98053.63
2022-08-06T04:21:22.055Z,98082.16
2022-08-06T04:24:15.904Z,98135.38
2022-08-06T04:27:09.288Z,98160.69
2022-08-06T04:30:02.270Z,98167.66
2022-08-06T04:33:00.903Z,98179.81
2022-08-06T04:36:07.715Z,98042.78
2022-08-06T04:38:57.353Z,98168.72
2022-08-06T04:41:44.662Z,98164.41
2022-08-06T04:44:33.324Z,98168.63
2022-08-06T04:47:20.238Z,98167.28
2022-08-06T04:50:07.648Z,98072.31
2022-08-06T04:53:05.268Z,98168.28
2022-08-06T04:56:03.125Z,98171.63
2022-08-06T04:58:49.931Z,98020.88
2022-08-06T05:01:53.145Z,98075.38
2022-08-06T05:04:39.993Z,98071.59
2022-08-06T05:07:53.212Z,98175.91
2022-08-06T05:11:10.897Z,98182.84
2022-08-06T05:14:02.539Z,98100.16
2022-08-06T05:16:58.788Z,98110.72
2022-08-06T05:19:51.379Z,98176.03
2022-08-06T05:22:52.389Z,98174.47
2022-08-06T05:25:54.219Z,98143.31
2022-08-06T05:28:43.640Z,98188.59
2022-08-06T05:31:40.444Z,98186.28
2022-08-06T05:34:26.977Z,98185.31
2022-08-06T05:37:13.056Z,98174.31
2022-08-06T05:39:59.703Z,98153.13
2022-08-06T05:42:57.300Z,98159.25
2022-08-06T05:45:46.258Z,98182.56
2022-08-06T05:48:38.349Z,98187.03
2022-08-06T05:51:55.857Z,98201.50
2022-08-06T05:55:02.643Z,98193.25
2022-08-06T05:58:08.641Z,98146.13
2022-08-06T06:01:01.041Z,98189.31
2022-08-06T06:03:48.871Z,98126.34
2022-08-06T06:06:36.889Z,98187.41
2022-08-06T06:09:56.745Z,98135.72
2022-08-06T06:12:31.841Z,98189.69
2022-08-06T06:16:01.704Z,98191.22
2022-08-06T06:18:56.106Z,98189.84
2022-08-06T06:22:07.831Z,98185.63
2022-08-06T06:25:01.017Z,98177.09
2022-08-06T06:27:57.966Z,98053.81
2022-08-06T06:32:04.609Z,98162.94
2022-08-06T06:34:39.010Z,98178.06
2022-08-06T06:37:48.463Z,98186.66
2022-08-06T06:41:03.337Z,98178.91
2022-08-06T06:46:05.342Z,98186.09
2022-08-06T06:48:22.626Z,98181.63
2022-08-06T06:51:40.840Z,98189.03
2022-08-06T06:54:37.815Z,98167.56
2022-08-06T06:57:45.931Z,98061.56
2022-08-06T07:00:43.537Z,98206.34
2022-08-06T07:03:42.652Z,98182.19
2022-08-06T07:06:43.352Z,98190.78
2022-08-06T07:09:40.972Z,98145.06
2022-08-06T07:12:33.906Z,98133.63
2022-08-06T07:15:24.069Z,98142.31
2022-08-06T07:18:26.224Z,98182.53
2022-08-06T07:21:19.283Z,98192.56
2022-08-06T07:24:32.338Z,98179.00
2022-08-06T07:27:16.136Z,98191.28
2022-08-06T07:30:03.272Z,98186.97
2022-08-06T07:32:52.652Z,98139.69
2022-08-06T07:35:42.300Z,98185.56
2022-08-06T07:38:32.366Z,98051.72
2022-08-06T07:41:31.534Z,98075.41
2022-08-06T07:44:29.604Z,98162.06
2022-08-06T07:47:29.569Z,98151.97
2022-08-06T07:50:16.426Z,98095.50
2022-08-06T07:53:02.879Z,98170.72
2022-08-06T07:55:48.828Z,98202.94
2022-08-06T07:58:39.775Z,98187.94
2022-08-06T08:01:37.033Z,98167.22
2022-08-06T08:04:57.256Z,98210.16
2022-08-06T08:07:57.183Z,98155.81
2022-08-06T08:10:44.360Z,98204.53
2022-08-06T08:13:41.647Z,98183.09
2022-08-06T08:16:33.791Z,98095.09
2022-08-06T08:19:35.106Z,98202.41
2022-08-06T08:22:24.235Z,98107.25
2022-08-06T08:25:10.464Z,98208.88
2022-08-06T08:28:00.808Z,98210.31
2022-08-06T08:30:49.482Z,98207.44
2022-08-06T08:33:37.165Z,98219.59
2022-08-06T08:36:30.863Z,98090.19
2022-08-06T08:39:17.180Z,98230.34
2022-08-06T08:42:32.060Z,98208.94
2022-08-06T08:45:19.545Z,98200.34
2022-08-06T08:48:15.475Z,98105.97
2022-08-06T08:51:13.699Z,98210.41
2022-08-06T08:54:10.120Z,98213.31
2022-08-06T08:57:08.282Z,98161.78
2022-08-06T09:00:10.860Z,98114.56
2022-08-06T09:02:57.572Z,98146.06
2022-08-06T09:05:47.083Z,98226.13
2022-08-06T09:09:02.430Z,98217.56
2022-08-06T09:12:03.752Z,98204.75
2022-08-06T09:14:47.031Z,98222.63
2022-08-06T09:18:12.315Z,98200.47
2022-08-06T09:20:45.669Z,98223.31
2022-08-06T09:23:36.858Z,98221.19
2022-08-06T09:26:54.762Z,98213.31
2022-08-06T09:30:11.788Z,98169.69
2022-08-06T09:34:29.262Z,98199.03
2022-08-06T09:36:32.791Z,98217.63
2022-08-06T09:40:00.254Z,98206.19
2022-08-06T09:42:51.306Z,98196.22
2022-08-06T09:45:47.503Z,98086.13
2022-08-06T09:48:36.086Z,98217.66
2022-08-06T09:51:26.723Z,98216.22
2022-08-06T09:54:38.418Z,98170.47
2022-08-06T09:57:33.049Z,98117.56
2022-08-06T10:00:33.083Z,98226.22
2022-08-06T10:04:03.344Z,98216.19
2022-08-06T10:06:29.674Z,98213.34
2022-08-06T10:09:41.730Z,98221.91
2022-08-06T10:12:26.895Z,98210.47
2022-08-06T10:15:57.764Z,98217.63
2022-08-06T10:18:56.246Z,98151.81
2022-08-06T10:21:46.668Z,98229.00
2022-08-06T10:24:48.780Z,98226.13
2022-08-06T10:27:38.201Z,98228.94
2022-08-06T10:30:25.087Z,98237.50
2022-08-06T10:33:22.230Z,98241.72
2022-08-06T10:36:22.156Z,98228.16
2022-08-06T10:40:07.209Z,98231.72
2022-08-06T10:42:22.186Z,98100.84
2022-08-06T10:45:16.135Z,98110.13
2022-08-06T10:48:59.449Z,98210.31
2022-08-06T10:51:15.108Z,98233.28
2022-08-06T10:54:19.938Z,98193.19
2022-08-06T10:57:10.818Z,98151.78
2022-08-06T11:00:03.242Z,98231.88
2022-08-06T11:03:16.581Z,98224.75
2022-08-06T11:06:18.054Z,98233.31
2022-08-06T11:10:00.056Z,98217.63
2022-08-06T11:12:47.925Z,98231.22
2022-08-06T11:15:38.377Z,98187.59
2022-08-06T11:18:28.321Z,98216.19
2022-08-06T11:21:58.946Z,98217.63
2022-08-06T11:24:55.543Z,98143.31
2022-08-06T11:28:02.839Z,98213.34
2022-08-06T11:31:33.534Z,98224.78
2022-08-06T11:34:48.612Z,98193.28
2022-08-06T11:38:00.894Z,98184.66
2022-08-06T11:41:51.489Z,98118.19
2022-08-06T11:44:42.931Z,98151.81
2022-08-06T11:48:05.236Z,98216.19
2022-08-06T11:50:52.576Z,98213.34
2022-08-06T11:53:46.527Z,98103.28
2022-08-06T11:56:59.631Z,98222.66
2022-08-06T11:59:58.570Z,98211.97
2022-08-06T12:02:56.940Z,98219.09
2022-08-06T12:05:56.853Z,98201.94
2022-08-06T12:09:11.926Z,98210.50
2022-08-06T12:12:34.969Z,98217.69
2022-08-06T12:15:58.960Z,98220.53
2022-08-06T12:18:39.507Z,98186.91
2022-08-06T12:21:29.605Z,98211.97
2022-08-06T12:24:51.607Z,98203.38
2022-08-06T12:27:46.013Z,98206.25
2022-08-06T12:30:48.705Z,98189.06
2022-08-06T12:33:44.154Z,98187.63
2022-08-06T12:36:35.251Z,98204.81
2022-08-06T12:39:45.591Z,98204.81
2022-08-06T12:42:53.926Z,98207.66
2022-08-06T12:46:06.866Z,98194.78
2022-08-06T12:49:06.517Z,98184.81
2022-08-06T12:51:54.670Z,98187.66
2022-08-06T12:54:47.747Z,98193.38
2022-08-06T12:57:57.803Z,98187.66
2022-08-06T13:00:58.153Z,98186.94
2022-08-06T13:04:01.423Z,98153.38
2022-08-06T13:07:21.170Z,98174.06
2022-08-06T13:10:39.038Z,98145.50
2022-08-06T13:14:14.410Z,98184.78
2022-08-06T13:16:56.539Z,98179.75
2022-08-06T13:19:56.449Z,98168.34
2022-08-06T13:22:54.205Z,98174.78
2022-08-06T13:25:53.035Z,98176.22
2022-08-06T13:30:31.298Z,98176.91
2022-08-06T13:32:33.290Z,98174.78
2022-08-06T13:35:32.762Z,98099.06
2022-08-06T13:38:36.849Z,98149.06
2022-08-06T13:41:29.668Z,98157.66
2022-08-06T13:44:34.067Z,98116.22
2022-08-06T13:47:38.719Z,98153.34
2022-08-06T13:50:41.033Z,98163.38
2022-08-06T13:53:40.443Z,98071.94
2022-08-06T13:56:37.497Z,98176.22
2022-08-06T13:59:41.460Z,98097.63
2022-08-06T14:02:30.415Z,98177.66
2022-08-06T14:05:23.823Z,98108.34
2022-08-06T14:08:26.735Z,98184.78
2022-08-06T14:11:21.708Z,98179.06
2022-08-06T14:14:09.225Z,98059.06
2022-08-06T14:17:03.181Z,98172.63
2022-08-06T14:20:14.887Z,98183.38
2022-08-06T14:22:55.658Z,98064.06
2022-08-06T14:26:00.442Z,98136.94
2022-08-06T14:28:54.591Z,98173.38
2022-08-06T14:31:58.659Z,98173.34
2022-08-06T14:34:45.301Z,98177.66
2022-08-06T14:37:32.920Z,98167.66
2022-08-06T14:41:02.102Z,98169.06
2022-08-06T14:44:07.846Z,98163.34
2022-08-06T14:46:55.487Z,98029.03
2022-08-06T14:49:51.960Z,98173.34
2022-08-06T14:52:40.633Z,98166.19
2022-08-06T14:55:31.668Z,98161.91
2022-08-06T14:58:17.972Z,98160.47
2022-08-06T15:01:17.428Z,98164.78
2022-08-06T15:04:24.180Z,98168.34
2022-08-06T15:07:24.812Z,98170.50
2022-08-06T15:10:29.672Z,98159.06
2022-08-06T15:13:16.293Z,98160.50
2022-08-06T15:16:22.457Z,98152.63
2022-08-06T15:19:20.660Z,98169.06
2022-08-06T15:22:35.641Z,98153.34
2022-08-06T15:26:01.595Z,98147.66
2022-08-06T15:28:31.078Z,98156.19
2022-08-06T15:31:20.572Z,98124.78
2022-08-06T15:34:07.026Z,98158.34
2022-08-06T15:37:01.420Z,98044.75
2022-08-06T15:39:53.276Z,98166.91
2022-08-06T15:42:43.611Z,98136.22
2022-08-06T15:45:50.246Z,98164.06
2022-08-06T15:48:35.099Z,98154.75
2022-08-06T15:51:29.647Z,98074.72
2022-08-06T15:54:18.806Z,98056.16
2022-08-06T15:57:06.472Z,98140.47
2022-08-06T16:00:05.165Z,98169.75
2022-08-06T16:03:08.626Z,98163.34
2022-08-06T16:06:12.708Z,98157.56
2022-08-06T16:09:04.965Z,98166.13
2022-08-06T16:11:54.563Z,98174.69
2022-08-06T16:14:47.709Z,98050.22
2022-08-06T16:18:05.954Z,98122.44
2022-08-06T16:20:56.966Z,98143.16
2022-08-06T16:23:56.633Z,98161.66
2022-08-06T16:26:48.566Z,98191.66
2022-08-06T16:29:37.091Z,98193.72
2022-08-06T16:32:26.095Z,98188.69
2022-08-06T16:35:15.454Z,98189.38
2022-08-06T16:38:12.109Z,98071.28
2022-08-06T16:41:03.700Z,98114.19
2022-08-06T16:43:52.206Z,98188.59
2022-08-06T16:46:43.681Z,98135.53
2022-08-06T16:50:17.305Z,98202.72
2022-08-06T16:52:43.232Z,98176.81
2022-08-06T16:55:48.869Z,98212.47
2022-08-06T16:58:42.711Z,98196.59
2022-08-06T17:02:20.876Z,98217.25
2022-08-06T17:05:03.221Z,98095.25
2022-08-06T17:07:55.055Z,98082.88
2022-08-06T17:10:58.152Z,98158.63
2022-08-06T17:14:05.458Z,98235.75
2022-08-06T17:17:06.954Z,98244.13
2022-08-06T17:19:55.665Z,98117.63
2022-08-06T17:23:01.728Z,98247.44
2022-08-06T17:26:01.176Z,98145.31
2022-08-06T17:28:51.995Z,98258.69
2022-08-06T17:31:58.404Z,98227.69
2022-08-06T17:34:48.297Z,98274.91
2022-08-06T17:37:43.784Z,98281.94
2022-08-06T17:40:34.245Z,98140.31
2022-08-06T17:43:56.725Z,98280.31
2022-08-06T17:46:37.822Z,98262.06
2022-08-06T17:49:38.063Z,98281.97
2022-08-06T17:52:31.970Z,98289.81
2022-08-06T17:55:36.784Z,98298.22
2022-08-06T17:58:37.462Z,98290.19
2022-08-06T18:01:44.132Z,98244.75
2022-08-06T18:04:35.621Z,98221.81
2022-08-06T18:08:07.935Z,98322.47
2022-08-06T18:10:36.603Z,98323.00
2022-08-06T18:13:52.062Z,98279.69
2022-08-06T18:16:44.611Z,98332.69
2022-08-06T18:19:36.465Z,98218.97
2022-08-06T18:22:25.481Z,98335.34
2022-08-06T18:25:14.819Z,98309.28
2022-08-06T18:28:01.887Z,98290.34
2022-08-06T18:30:50.831Z,98323.19
2022-08-06T18:33:38.161Z,98321.59
2022-08-06T18:36:43.978Z,98342.97
2022-08-06T18:40:18.052Z,98358.41
2022-08-06T18:42:42.327Z,98351.25
2022-08-06T18:45:36.886Z,98359.66
2022-08-06T18:48:25.107Z,98375.34
2022-08-06T18:51:13.784Z,98364.59
2022-08-06T18:54:05.311Z,98376.78
2022-08-06T18:56:54.656Z,98378.84
2022-08-06T18:59:51.108Z,98347.59
2022-08-06T19:02:43.379Z,98380.69
2022-08-06T19:05:40.218Z,98378.88
2022-08-06T19:08:31.515Z,98383.09
2022-08-06T19:11:17.532Z,98343.75
2022-08-06T19:14:18.846Z,98395.28
2022-08-06T19:17:09.260Z,98276.41
2022-08-06T19:20:18.822Z,98372.78
2022-08-06T19:23:06.697Z,98410.66
2022-08-06T19:26:13.037Z,98405.38
2022-08-06T19:29:02.170Z,98420.94
2022-08-06T19:31:50.132Z,98383.06
2022-08-06T19:34:38.574Z,98293.16
2022-08-06T19:37:59.709Z,98431.47
2022-08-06T19:40:52.788Z,98442.78
2022-08-06T19:44:28.022Z,98353.22
2022-08-06T19:46:56.183Z,98451.06
2022-08-06T19:49:45.118Z,98292.88
2022-08-06T19:52:46.389Z,98442.75
2022-08-06T19:56:07.650Z,98441.19
2022-08-06T20:00:51.159Z,98420.97
2022-08-06T20:02:09.276Z,98443.13
2022-08-06T20:05:01.398Z,98435.81
2022-08-06T20:07:56.105Z,98452.97
2022-08-06T20:10:58.551Z,98445.75
2022-08-06T20:13:46.188Z,98448.59
2022-08-06T20:16:34.449Z,98468.44
2022-08-06T20:20:05.266Z,98345.81
2022-08-06T20:22:32.631Z,98454.06
2022-08-06T20:25:23.699Z,98468.19
2022-08-06T20:29:08.293Z,98453.94
2022-08-06T20:31:21.117Z,98445.72
2022-08-06T20:34:07.610Z,98458.25
2022-08-06T20:36:59.098Z,98465.25
2022-08-06T20:39:48.521Z,98463.72
2022-08-06T20:42:36.237Z,98338.38
2022-08-06T20:45:56.364Z,98330.50
2022-08-06T20:48:39.951Z,98476.16
2022-08-06T20:51:29.213Z,98476.16
2022-08-06T20:54:19.155Z,98338.56
2022-08-06T20:57:13.013Z,98494.19
2022-08-06T21:00:28.549Z,98480.81
2022-08-06T21:05:11.578Z,98448.00
2022-08-06T21:06:30.777Z,98482.16
2022-08-06T21:09:19.934Z,98482.16
2022-08-06T21:12:21.134Z,98476.94
2022-08-06T21:15:42.543Z,98479.69
2022-08-06T21:18:21.822Z,98488.69
2022-08-06T21:21:11.066Z,98476.53
2022-08-06T21:23:58.360Z,98460.47
2022-08-06T21:26:56.254Z,98474.13
2022-08-06T21:30:09.239Z,98486.38
2022-08-06T21:32:54.368Z,98470.97
2022-08-06T21:35:42.525Z,98474.53
2022-08-06T21:38:29.879Z,98472.19
2022-08-06T21:41:56.082Z,98463.22
2022-08-06T21:44:37.175Z,98342.41
2022-08-06T21:47:36.379Z,98330.25
2022-08-06T21:50:32.819Z,98476.03
2022-08-06T21:53:49.939Z,98466.81
2022-08-06T21:56:38.037Z,98422.91
2022-08-06T21:59:29.825Z,98467.84
2022-08-06T22:02:28.028Z,98478.13
2022-08-06T22:05:16.870Z,98452.31
2022-08-06T22:08:19.095Z,98466.81
2022-08-06T22:12:37.577Z,98431.81
2022-08-06T22:14:16.287Z,98477.31
2022-08-06T22:17:01.866Z,98479.19
2022-08-06T22:19:47.605Z,98487.56
2022-08-06T22:22:36.028Z,98381.56
2022-08-06T22:25:24.014Z,98422.78
2022-08-06T22:28:09.854Z,98476.00
2022-08-06T22:31:09.037Z,98496.47
2022-08-06T22:34:01.119Z,98471.38
2022-08-06T22:36:51.605Z,98482.69
2022-08-06T22:39:39.685Z,98363.84
2022-08-06T22:42:35.632Z,98489.63
2022-08-06T22:46:00.205Z,98392.34
2022-08-06T22:48:37.440Z,98486.53
2022-08-06T22:51:28.716Z,98482.28
2022-08-06T22:54:28.918Z,98485.03
2022-08-06T22:57:18.707Z,98456.00
2022-08-06T23:00:11.748Z,98359.56
2022-08-06T23:03:13.562Z,98458.97
2022-08-06T23:06:00.482Z,98288.97
2022-08-06T23:08:46.563Z,98497.41
2022-08-06T23:11:35.468Z,98492.31
2022-08-06T23:14:27.343Z,98494.88
2022-08-06T23:17:22.035Z,98353.81
2022-08-06T23:20:11.761Z,98492.38
2022-08-06T23:22:58.284Z,98356.19
2022-08-06T23:26:00.568Z,98372.75
2022-08-06T23:28:49.089Z,98356.97
2022-08-06T23:31:37.108Z,98508.03
2022-08-06T23:34:35.763Z,98445.34
2022-08-06T23:37:21.481Z,98493.97
2022-08-06T23:40:15.668Z,98506.56
2022-08-06T23:43:01.699Z,98415.31
2022-08-06T23:45:48.013Z,98506.41
2022-08-06T23:48:34.358Z,98501.97
2022-08-06T23:52:01.187Z,98360.69
2022-08-06T23:54:28.738Z,98379.19
2022-08-06T23:57:17.667Z,98502.41
